sensor_id;sensor_type;location;lat;lon;timestamp;pressure;altitude;pressure_sealevel;temperature;humidity
68329;BME280;55182;56.864;60.554;2024-02-14T00:02:22;78691.66;;;-143.60;74.09
68329;BME280;55182;56.864;60.554;2024-02-14T00:04:47;78691.66;;;-143.60;74.23
68329;BME280;55182;56.864;60.554;2024-02-14T00:07:13;78705.72;;;-143.60;73.98
68329;BME280;55182;56.864;60.554;2024-02-14T00:09:38;78699.69;;;-143.60;73.62
68329;BME280;55182;56.864;60.554;2024-02-14T00:12:04;78707.75;;;-143.60;73.29
68329;BME280;55182;56.864;60.554;2024-02-14T00:14:29;78719.81;;;-143.60;73.64
68329;BME280;55182;56.864;60.554;2024-02-14T00:16:55;78731.88;;;-143.60;73.59
68329;BME280;55182;56.864;60.554;2024-02-14T00:19:21;78731.88;;;-143.60;73.62
68329;BME280;55182;56.864;60.554;2024-02-14T00:21:46;78764.03;;;-143.60;73.69
68329;BME280;55182;56.864;60.554;2024-02-14T00:24:12;78756.00;;;-143.60;73.72
68329;BME280;55182;56.864;60.554;2024-02-14T00:26:37;78784.16;;;-143.60;73.84
68329;BME280;55182;56.864;60.554;2024-02-14T00:29:02;78794.22;;;-143.60;73.32
68329;BME280;55182;56.864;60.554;2024-02-14T00:31:28;78796.22;;;-143.60;73.10
68329;BME280;55182;56.864;60.554;2024-02-14T00:33:55;78812.31;;;-143.60;72.92
68329;BME280;55182;56.864;60.554;2024-02-14T00:36:21;78798.22;;;-143.60;73.10
68329;BME280;55182;56.864;60.554;2024-02-14T00:38:46;78814.31;;;-143.60;73.10
68329;BME280;55182;56.864;60.554;2024-02-14T00:41:11;78812.31;;;-143.60;72.89
68329;BME280;55182;56.864;60.554;2024-02-14T00:43:37;78812.31;;;-143.60;72.86
68329;BME280;55182;56.864;60.554;2024-02-14T00:46:02;78832.41;;;-143.60;72.83
68329;BME280;55182;56.864;60.554;2024-02-14T00:48:28;78826.38;;;-143.60;72.60
68329;BME280;55182;56.864;60.554;2024-02-14T00:50:53;78856.53;;;-143.60;72.81
68329;BME280;55182;56.864;60.554;2024-02-14T00:53:19;78852.53;;;-143.60;72.61
68329;BME280;55182;56.864;60.554;2024-02-14T00:55:45;78860.56;;;-143.60;72.55
68329;BME280;55182;56.864;60.554;2024-02-14T00:58:10;78870.63;;;-143.60;72.70
68329;BME280;55182;56.864;60.554;2024-02-14T01:00:36;78872.63;;;-143.60;72.58
68329;BME280;55182;56.864;60.554;2024-02-14T01:03:01;78880.69;;;-143.60;72.85
68329;BME280;55182;56.864;60.554;2024-02-14T01:05:27;78868.59;;;-143.60;73.20
68329;BME280;55182;56.864;60.554;2024-02-14T01:07:52;78892.75;;;-143.60;72.75
68329;BME280;55182;56.864;60.554;2024-02-14T01:10:18;78888.72;;;-143.60;72.94
68329;BME280;55182;56.864;60.554;2024-02-14T01:12:43;78886.72;;;-143.60;72.92
68329;BME280;55182;56.864;60.554;2024-02-14T01:15:09;78916.88;;;-143.60;72.60
68329;BME280;55182;56.864;60.554;2024-02-14T01:17:35;78910.84;;;-143.60;72.67
68329;BME280;55182;56.864;60.554;2024-02-14T01:20:00;78902.78;;;-143.60;72.40
68329;BME280;55182;56.864;60.554;2024-02-14T01:22:25;78932.97;;;-143.60;72.42
68329;BME280;55182;56.864;60.554;2024-02-14T01:24:51;78924.91;;;-143.60;73.07
68329;BME280;55182;56.864;60.554;2024-02-14T01:27:16;78941.00;;;-143.60;73.21
68329;BME280;55182;56.864;60.554;2024-02-14T01:29:42;78941.00;;;-143.60;73.76
68329;BME280;55182;56.864;60.554;2024-02-14T01:32:07;78955.06;;;-143.60;73.72
68329;BME280;55182;56.864;60.554;2024-02-14T01:34:33;78981.22;;;-143.60;73.84
68329;BME280;55182;56.864;60.554;2024-02-14T01:36:58;78969.16;;;-143.60;73.93
68329;BME280;55182;56.864;60.554;2024-02-14T01:39:23;78979.22;;;-143.60;74.29
68329;BME280;55182;56.864;60.554;2024-02-14T01:41:49;78961.13;;;-143.60;74.43
68329;BME280;55182;56.864;60.554;2024-02-14T01:44:15;78977.19;;;-143.60;74.27
68329;BME280;55182;56.864;60.554;2024-02-14T01:46:41;78993.28;;;-143.60;74.39
68329;BME280;55182;56.864;60.554;2024-02-14T01:49:06;78993.28;;;-143.60;74.56
68329;BME280;55182;56.864;60.554;2024-02-14T01:51:32;79009.38;;;-143.60;74.45
68329;BME280;55182;56.864;60.554;2024-02-14T01:53:59;79025.47;;;-143.60;74.61
68329;BME280;55182;56.864;60.554;2024-02-14T01:56:25;79023.44;;;-143.60;74.73
68329;BME280;55182;56.864;60.554;2024-02-14T01:58:51;79041.53;;;-143.60;74.71
68329;BME280;55182;56.864;60.554;2024-02-14T02:01:18;79049.59;;;-143.60;74.97
68329;BME280;55182;56.864;60.554;2024-02-14T02:03:43;79053.63;;;-143.60;75.05
68329;BME280;55182;56.864;60.554;2024-02-14T02:06:09;79065.69;;;-143.60;74.98
68329;BME280;55182;56.864;60.554;2024-02-14T02:08:35;79039.53;;;-143.60;74.88
68329;BME280;55182;56.864;60.554;2024-02-14T02:11:00;79067.69;;;-143.60;74.79
68329;BME280;55182;56.864;60.554;2024-02-14T02:13:26;79073.72;;;-143.60;74.95
68329;BME280;55182;56.864;60.554;2024-02-14T02:15:52;79061.66;;;-143.60;74.90
68329;BME280;55182;56.864;60.554;2024-02-14T02:18:17;79083.78;;;-143.60;75.08
68329;BME280;55182;56.864;60.554;2024-02-14T02:20:43;79065.69;;;-143.60;75.18
68329;BME280;55182;56.864;60.554;2024-02-14T02:23:10;79073.72;;;-143.60;75.03
68329;BME280;55182;56.864;60.554;2024-02-14T02:25:35;79075.72;;;-143.60;75.34
68329;BME280;55182;56.864;60.554;2024-02-14T02:28:01;79089.81;;;-143.60;75.23
68329;BME280;55182;56.864;60.554;2024-02-14T02:30:26;79101.88;;;-143.60;75.26
68329;BME280;55182;56.864;60.554;2024-02-14T02:32:51;79103.88;;;-143.60;75.15
68329;BME280;55182;56.864;60.554;2024-02-14T02:35:17;79105.91;;;-143.60;75.65
68329;BME280;55182;56.864;60.554;2024-02-14T02:37:42;79117.97;;;-143.60;76.05
68329;BME280;55182;56.864;60.554;2024-02-14T02:40:08;79126.00;;;-143.60;76.11
68329;BME280;55182;56.864;60.554;2024-02-14T02:42:34;79134.06;;;-143.60;76.52
68329;BME280;55182;56.864;60.554;2024-02-14T02:44:59;79154.16;;;-143.60;76.20
68329;BME280;55182;56.864;60.554;2024-02-14T02:47:24;79138.06;;;-143.60;76.11
68329;BME280;55182;56.864;60.554;2024-02-14T02:49:50;79180.31;;;-143.60;76.04
68329;BME280;55182;56.864;60.554;2024-02-14T02:52:15;79186.34;;;-143.60;76.18
68329;BME280;55182;56.864;60.554;2024-02-14T02:54:41;79194.38;;;-143.60;76.39
68329;BME280;55182;56.864;60.554;2024-02-14T02:57:07;79206.44;;;-143.60;76.98
68329;BME280;55182;56.864;60.554;2024-02-14T02:59:33;79206.44;;;-143.60;76.80
68329;BME280;55182;56.864;60.554;2024-02-14T03:01:58;79214.50;;;-143.60;76.66
68329;BME280;55182;56.864;60.554;2024-02-14T03:04:24;79226.56;;;-143.60;76.51
68329;BME280;55182;56.864;60.554;2024-02-14T03:06:49;79242.66;;;-143.60;76.34
68329;BME280;55182;56.864;60.554;2024-02-14T03:09:15;79246.66;;;-143.60;76.44
68329;BME280;55182;56.864;60.554;2024-02-14T03:11:40;79236.63;;;-143.60;76.41
68329;BME280;55182;56.864;60.554;2024-02-14T03:14:06;79248.69;;;-143.60;76.21
68329;BME280;55182;56.864;60.554;2024-02-14T03:16:31;79268.78;;;-143.60;76.21
68329;BME280;55182;56.864;60.554;2024-02-14T03:18:57;79278.84;;;-143.60;76.51
68329;BME280;55182;56.864;60.554;2024-02-14T03:21:22;79300.97;;;-143.60;76.51
68329;BME280;55182;56.864;60.554;2024-02-14T03:23:48;79302.97;;;-143.60;76.52
68329;BME280;55182;56.864;60.554;2024-02-14T03:26:13;79311.03;;;-143.60;77.13
68329;BME280;55182;56.864;60.554;2024-02-14T03:28:39;79325.09;;;-143.60;76.80
68329;BME280;55182;56.864;60.554;2024-02-14T03:31:04;79323.09;;;-143.60;76.53
68329;BME280;55182;56.864;60.554;2024-02-14T03:33:30;79335.16;;;-143.60;76.48
68329;BME280;55182;56.864;60.554;2024-02-14T03:35:55;79345.22;;;-143.60;75.94
68329;BME280;55182;56.864;60.554;2024-02-14T03:38:24;79355.25;;;-143.60;75.71
68329;BME280;55182;56.864;60.554;2024-02-14T03:40:50;79359.28;;;-143.60;75.89
68329;BME280;55182;56.864;60.554;2024-02-14T03:43:15;79359.28;;;-143.60;76.08
68329;BME280;55182;56.864;60.554;2024-02-14T03:45:41;79371.34;;;-143.60;76.56
68329;BME280;55182;56.864;60.554;2024-02-14T03:48:06;79359.28;;;-143.60;76.24
68329;BME280;55182;56.864;60.554;2024-02-14T03:50:31;79377.38;;;-143.60;76.38
68329;BME280;55182;56.864;60.554;2024-02-14T03:52:57;79379.41;;;-143.60;76.09
68329;BME280;55182;56.864;60.554;2024-02-14T03:55:22;79355.25;;;-143.60;75.49
68329;BME280;55182;56.864;60.554;2024-02-14T03:57:48;79379.41;;;-143.60;75.46
68329;BME280;55182;56.864;60.554;2024-02-14T04:00:13;79375.38;;;-143.60;75.47
68329;BME280;55182;56.864;60.554;2024-02-14T04:02:39;79389.44;;;-143.60;75.57
68329;BME280;55182;56.864;60.554;2024-02-14T04:05:05;79385.44;;;-143.60;75.23
68329;BME280;55182;56.864;60.554;2024-02-14T04:07:30;79387.44;;;-143.60;75.21
68329;BME280;55182;56.864;60.554;2024-02-14T04:09:56;79389.44;;;-143.60;75.32
68329;BME280;55182;56.864;60.554;2024-02-14T04:12:21;79399.50;;;-143.60;75.38
68329;BME280;55182;56.864;60.554;2024-02-14T04:14:47;79373.38;;;-143.60;75.17
68329;BME280;55182;56.864;60.554;2024-02-14T04:17:12;79391.47;;;-143.60;75.60
68329;BME280;55182;56.864;60.554;2024-02-14T04:19:38;79385.44;;;-143.60;75.69
68329;BME280;55182;56.864;60.554;2024-02-14T04:22:03;79389.44;;;-143.60;76.27
68329;BME280;55182;56.864;60.554;2024-02-14T04:24:29;79399.50;;;-143.60;75.75
68329;BME280;55182;56.864;60.554;2024-02-14T04:26:54;79413.59;;;-143.60;75.48
68329;BME280;55182;56.864;60.554;2024-02-14T04:29:20;79415.59;;;-143.60;75.53
68329;BME280;55182;56.864;60.554;2024-02-14T04:31:45;79437.72;;;-143.60;75.19
68329;BME280;55182;56.864;60.554;2024-02-14T04:34:10;79447.78;;;-143.60;74.95
68329;BME280;55182;56.864;60.554;2024-02-14T04:36:36;79459.84;;;-143.60;74.67
68329;BME280;55182;56.864;60.554;2024-02-14T04:39:01;79459.84;;;-143.60;74.93
68329;BME280;55182;56.864;60.554;2024-02-14T04:41:27;79459.84;;;-143.60;75.41
68329;BME280;55182;56.864;60.554;2024-02-14T04:43:52;79463.88;;;-143.60;75.51
68329;BME280;55182;56.864;60.554;2024-02-14T04:46:18;79459.84;;;-143.60;75.39
68329;BME280;55182;56.864;60.554;2024-02-14T04:48:43;79455.81;;;-143.60;75.47
68329;BME280;55182;56.864;60.554;2024-02-14T04:51:09;79459.84;;;-143.60;75.21
68329;BME280;55182;56.864;60.554;2024-02-14T04:53:34;79463.88;;;-143.60;75.40
68329;BME280;55182;56.864;60.554;2024-02-14T04:56:00;79463.88;;;-143.60;74.76
68329;BME280;55182;56.864;60.554;2024-02-14T04:58:25;79469.91;;;-143.60;74.14
68329;BME280;55182;56.864;60.554;2024-02-14T05:00:51;79473.91;;;-143.60;73.64
68329;BME280;55182;56.864;60.554;2024-02-14T05:03:16;79492.03;;;-143.60;73.68
68329;BME280;55182;56.864;60.554;2024-02-14T05:05:42;79479.94;;;-143.60;73.89
68329;BME280;55182;56.864;60.554;2024-02-14T05:08:07;79475.94;;;-143.60;73.75
68329;BME280;55182;56.864;60.554;2024-02-14T05:10:32;79500.06;;;-143.60;73.72
68329;BME280;55182;56.864;60.554;2024-02-14T05:12:58;79496.03;;;-143.60;72.94
68329;BME280;55182;56.864;60.554;2024-02-14T05:15:23;79500.06;;;-143.60;73.06
68329;BME280;55182;56.864;60.554;2024-02-14T05:17:49;79512.13;;;-143.60;73.10
68329;BME280;55182;56.864;60.554;2024-02-14T05:20:14;79518.16;;;-143.60;72.61
68329;BME280;55182;56.864;60.554;2024-02-14T05:22:40;79518.16;;;-143.60;72.55
68329;BME280;55182;56.864;60.554;2024-02-14T05:25:05;79522.19;;;-143.60;72.62
68329;BME280;55182;56.864;60.554;2024-02-14T05:27:31;79530.22;;;-143.60;72.45
68329;BME280;55182;56.864;60.554;2024-02-14T05:29:56;79536.25;;;-143.60;71.91
68329;BME280;55182;56.864;60.554;2024-02-14T05:32:22;79536.25;;;-143.60;72.06
68329;BME280;55182;56.864;60.554;2024-02-14T05:34:47;79536.25;;;-143.60;72.41
68329;BME280;55182;56.864;60.554;2024-02-14T05:37:13;79536.25;;;-143.60;72.42
68329;BME280;55182;56.864;60.554;2024-02-14T05:39:38;79544.31;;;-143.60;72.25
68329;BME280;55182;56.864;60.554;2024-02-14T05:42:04;79534.25;;;-143.60;71.99
68329;BME280;55182;56.864;60.554;2024-02-14T05:44:30;79530.22;;;-143.60;72.26
68329;BME280;55182;56.864;60.554;2024-02-14T05:46:55;79524.19;;;-143.60;71.84
68329;BME280;55182;56.864;60.554;2024-02-14T05:49:21;79516.16;;;-143.60;71.46
68329;BME280;55182;56.864;60.554;2024-02-14T05:51:47;79512.13;;;-143.60;71.36
68329;BME280;55182;56.864;60.554;2024-02-14T05:54:12;79510.13;;;-143.60;71.42
68329;BME280;55182;56.864;60.554;2024-02-14T05:56:37;79510.13;;;-143.60;71.19
68329;BME280;55182;56.864;60.554;2024-02-14T05:59:03;79512.13;;;-143.60;71.50
68329;BME280;55182;56.864;60.554;2024-02-14T06:01:28;79504.09;;;-143.60;70.85
68329;BME280;55182;56.864;60.554;2024-02-14T06:03:54;79532.25;;;-143.60;70.75
68329;BME280;55182;56.864;60.554;2024-02-14T06:06:19;79498.06;;;-143.60;70.29
68329;BME280;55182;56.864;60.554;2024-02-14T06:08:44;79524.19;;;-143.60;70.62
68329;BME280;55182;56.864;60.554;2024-02-14T06:11:10;79516.16;;;-143.60;70.95
68329;BME280;55182;56.864;60.554;2024-02-14T06:13:35;79512.13;;;-143.60;71.17
68329;BME280;55182;56.864;60.554;2024-02-14T06:16:01;79514.16;;;-143.60;70.68
68329;BME280;55182;56.864;60.554;2024-02-14T06:18:26;79516.16;;;-143.60;70.58
68329;BME280;55182;56.864;60.554;2024-02-14T06:20:52;79504.09;;;-143.60;70.30
68329;BME280;55182;56.864;60.554;2024-02-14T06:23:17;79496.03;;;-143.60;70.40
68329;BME280;55182;56.864;60.554;2024-02-14T06:25:43;79494.03;;;-143.60;70.04
68329;BME280;55182;56.864;60.554;2024-02-14T06:28:08;79492.03;;;-143.60;69.88
68329;BME280;55182;56.864;60.554;2024-02-14T06:30:34;79490.00;;;-143.60;69.46
68329;BME280;55182;56.864;60.554;2024-02-14T06:32:59;79475.94;;;-143.60;68.79
68329;BME280;55182;56.864;60.554;2024-02-14T06:35:25;79463.88;;;-143.60;68.51
68329;BME280;55182;56.864;60.554;2024-02-14T06:37:50;79483.97;;;-143.60;67.91
68329;BME280;55182;56.864;60.554;2024-02-14T06:40:16;79455.81;;;-143.60;68.21
68329;BME280;55182;56.864;60.554;2024-02-14T06:42:41;79455.81;;;-143.60;68.26
68329;BME280;55182;56.864;60.554;2024-02-14T06:45:06;79459.84;;;-143.60;68.32
68329;BME280;55182;56.864;60.554;2024-02-14T06:47:32;79449.78;;;-143.60;67.46
68329;BME280;55182;56.864;60.554;2024-02-14T06:49:57;79447.78;;;-143.60;67.49
68329;BME280;55182;56.864;60.554;2024-02-14T06:52:23;79447.78;;;-143.60;67.78
68329;BME280;55182;56.864;60.554;2024-02-14T06:54:49;79437.72;;;-143.60;67.39
68329;BME280;55182;56.864;60.554;2024-02-14T06:57:14;79425.66;;;-143.60;67.18
68329;BME280;55182;56.864;60.554;2024-02-14T06:59:41;79413.59;;;-143.60;66.98
68329;BME280;55182;56.864;60.554;2024-02-14T07:02:06;79403.53;;;-143.60;66.58
68329;BME280;55182;56.864;60.554;2024-02-14T07:04:32;79397.50;;;-143.60;66.45
68329;BME280;55182;56.864;60.554;2024-02-14T07:06:58;79393.47;;;-143.60;65.50
68329;BME280;55182;56.864;60.554;2024-02-14T07:09:23;79395.50;;;-143.60;65.41
68329;BME280;55182;56.864;60.554;2024-02-14T07:11:49;79387.44;;;-143.60;64.69
68329;BME280;55182;56.864;60.554;2024-02-14T07:14:14;79381.41;;;-143.60;64.97
68329;BME280;55182;56.864;60.554;2024-02-14T07:16:39;79381.41;;;-143.60;64.64
68329;BME280;55182;56.864;60.554;2024-02-14T07:19:05;79371.34;;;-143.60;64.27
68329;BME280;55182;56.864;60.554;2024-02-14T07:21:30;79373.38;;;-143.60;64.02
68329;BME280;55182;56.864;60.554;2024-02-14T07:23:56;79371.34;;;-143.60;64.22
68329;BME280;55182;56.864;60.554;2024-02-14T07:26:21;79367.34;;;-143.60;63.48
68329;BME280;55182;56.864;60.554;2024-02-14T07:28:47;79361.28;;;-143.60;63.86
68329;BME280;55182;56.864;60.554;2024-02-14T07:31:12;79357.28;;;-143.60;63.71
68329;BME280;55182;56.864;60.554;2024-02-14T07:33:37;79331.13;;;-143.60;62.70
68329;BME280;55182;56.864;60.554;2024-02-14T07:36:03;79345.22;;;-143.60;62.39
68329;BME280;55182;56.864;60.554;2024-02-14T07:38:28;79357.28;;;-143.60;62.25
68329;BME280;55182;56.864;60.554;2024-02-14T07:40:54;79349.22;;;-143.60;62.17
68329;BME280;55182;56.864;60.554;2024-02-14T07:43:19;79341.19;;;-143.60;61.91
68329;BME280;55182;56.864;60.554;2024-02-14T07:45:44;79335.16;;;-143.60;62.03
68329;BME280;55182;56.864;60.554;2024-02-14T07:48:10;79319.06;;;-143.60;61.87
68329;BME280;55182;56.864;60.554;2024-02-14T07:50:35;79327.09;;;-143.60;61.06
68329;BME280;55182;56.864;60.554;2024-02-14T07:53:01;79341.19;;;-143.60;60.79
68329;BME280;55182;56.864;60.554;2024-02-14T07:55:26;79335.16;;;-143.60;60.59
68329;BME280;55182;56.864;60.554;2024-02-14T07:57:52;79323.09;;;-143.60;60.43
68329;BME280;55182;56.864;60.554;2024-02-14T08:00:17;79311.03;;;-143.60;60.88
68329;BME280;55182;56.864;60.554;2024-02-14T08:02:43;79302.97;;;-143.60;60.74
68329;BME280;55182;56.864;60.554;2024-02-14T08:05:08;79282.88;;;-143.60;61.03
68329;BME280;55182;56.864;60.554;2024-02-14T08:07:34;79272.81;;;-143.60;60.36
68329;BME280;55182;56.864;60.554;2024-02-14T08:09:59;79248.69;;;-143.60;59.81
68329;BME280;55182;56.864;60.554;2024-02-14T08:12:25;79234.59;;;-143.60;60.05
68329;BME280;55182;56.864;60.554;2024-02-14T08:14:51;79214.50;;;-143.60;59.78
68329;BME280;55182;56.864;60.554;2024-02-14T08:17:17;79216.50;;;-143.60;58.78
68329;BME280;55182;56.864;60.554;2024-02-14T08:19:42;79234.59;;;-143.60;58.96
68329;BME280;55182;56.864;60.554;2024-02-14T08:22:08;79238.63;;;-143.60;57.13
68329;BME280;55182;56.864;60.554;2024-02-14T08:24:33;79238.63;;;-143.60;57.05
68329;BME280;55182;56.864;60.554;2024-02-14T08:26:59;79206.44;;;-143.60;56.90
68329;BME280;55182;56.864;60.554;2024-02-14T08:29:24;79214.50;;;-143.60;56.45
68329;BME280;55182;56.864;60.554;2024-02-14T08:31:50;79210.47;;;-143.60;55.81
68329;BME280;55182;56.864;60.554;2024-02-14T08:34:15;79206.44;;;-143.60;55.57
68329;BME280;55182;56.864;60.554;2024-02-14T08:36:41;79200.41;;;-143.60;55.89
68329;BME280;55182;56.864;60.554;2024-02-14T08:39:07;79206.44;;;-143.60;55.43
68329;BME280;55182;56.864;60.554;2024-02-14T08:41:33;79198.41;;;-143.60;55.76
68329;BME280;55182;56.864;60.554;2024-02-14T08:43:58;79190.34;;;-143.60;55.38
68329;BME280;55182;56.864;60.554;2024-02-14T08:46:24;79194.38;;;-143.60;55.77
68329;BME280;55182;56.864;60.554;2024-02-14T08:48:50;79202.44;;;-143.60;55.07
68329;BME280;55182;56.864;60.554;2024-02-14T08:51:15;79202.44;;;-143.60;55.10
68329;BME280;55182;56.864;60.554;2024-02-14T08:53:41;79212.47;;;-143.60;53.73
68329;BME280;55182;56.864;60.554;2024-02-14T08:56:06;79220.53;;;-143.60;53.83
68329;BME280;55182;56.864;60.554;2024-02-14T08:58:33;79234.59;;;-143.60;54.11
68329;BME280;55182;56.864;60.554;2024-02-14T09:00:58;79234.59;;;-143.60;53.99
68329;BME280;55182;56.864;60.554;2024-02-14T09:03:24;79210.47;;;-143.60;54.71
68329;BME280;55182;56.864;60.554;2024-02-14T09:05:51;79216.50;;;-143.60;53.67
68329;BME280;55182;56.864;60.554;2024-02-14T09:08:16;79194.38;;;-143.60;54.77
68329;BME280;55182;56.864;60.554;2024-02-14T09:10:42;79174.28;;;-143.60;54.33
68329;BME280;55182;56.864;60.554;2024-02-14T09:13:07;79200.41;;;-143.60;52.55
68329;BME280;55182;56.864;60.554;2024-02-14T09:15:33;79210.47;;;-143.60;52.40
68329;BME280;55182;56.864;60.554;2024-02-14T09:17:58;79186.34;;;-143.60;52.93
68329;BME280;55182;56.864;60.554;2024-02-14T09:20:24;79190.34;;;-143.60;52.58
68329;BME280;55182;56.864;60.554;2024-02-14T09:22:49;79174.28;;;-143.60;52.66
68329;BME280;55182;56.864;60.554;2024-02-14T09:25:14;79170.25;;;-143.60;53.38
68329;BME280;55182;56.864;60.554;2024-02-14T09:27:40;79168.25;;;-143.60;53.09
68329;BME280;55182;56.864;60.554;2024-02-14T09:30:06;79150.13;;;-143.60;53.64
68329;BME280;55182;56.864;60.554;2024-02-14T09:32:31;79172.25;;;-143.60;51.62
68329;BME280;55182;56.864;60.554;2024-02-14T09:34:58;79168.25;;;-143.60;52.16
68329;BME280;55182;56.864;60.554;2024-02-14T09:37:23;79154.16;;;-143.60;52.53
68329;BME280;55182;56.864;60.554;2024-02-14T09:39:49;79148.13;;;-143.60;52.67
68329;BME280;55182;56.864;60.554;2024-02-14T09:42:15;79142.09;;;-143.60;52.27
68329;BME280;55182;56.864;60.554;2024-02-14T09:44:41;79132.03;;;-143.60;51.55
68329;BME280;55182;56.864;60.554;2024-02-14T09:47:07;79132.03;;;-143.60;51.58
68329;BME280;55182;56.864;60.554;2024-02-14T09:49:34;79119.97;;;-143.60;52.16
68329;BME280;55182;56.864;60.554;2024-02-14T09:52:01;79115.94;;;-143.60;51.14
68329;BME280;55182;56.864;60.554;2024-02-14T09:54:26;79130.03;;;-143.60;51.40
68329;BME280;55182;56.864;60.554;2024-02-14T09:56:52;79166.22;;;-143.60;50.27
68329;BME280;55182;56.864;60.554;2024-02-14T09:59:17;79170.25;;;-143.60;50.44
68329;BME280;55182;56.864;60.554;2024-02-14T10:01:43;79178.28;;;-143.60;51.00
68329;BME280;55182;56.864;60.554;2024-02-14T10:04:08;79182.31;;;-143.60;51.50
68329;BME280;55182;56.864;60.554;2024-02-14T10:06:34;79172.25;;;-143.60;51.92
68329;BME280;55182;56.864;60.554;2024-02-14T10:08:59;79186.34;;;-143.60;51.95
68329;BME280;55182;56.864;60.554;2024-02-14T10:11:25;79196.38;;;-143.60;52.32
68329;BME280;55182;56.864;60.554;2024-02-14T10:13:50;79212.47;;;-143.60;52.74
68329;BME280;55182;56.864;60.554;2024-02-14T10:16:16;79220.53;;;-143.60;53.20
68329;BME280;55182;56.864;60.554;2024-02-14T10:18:41;79232.59;;;-143.60;52.95
68329;BME280;55182;56.864;60.554;2024-02-14T10:21:08;79246.66;;;-143.60;51.97
68329;BME280;55182;56.864;60.554;2024-02-14T10:23:34;79236.63;;;-143.60;52.33
68329;BME280;55182;56.864;60.554;2024-02-14T10:25:59;79254.72;;;-143.60;52.29
68329;BME280;55182;56.864;60.554;2024-02-14T10:28:25;79258.72;;;-143.60;52.75
68329;BME280;55182;56.864;60.554;2024-02-14T10:30:50;79258.72;;;-143.60;53.12
68329;BME280;55182;56.864;60.554;2024-02-14T10:33:16;79274.81;;;-143.60;52.78
68329;BME280;55182;56.864;60.554;2024-02-14T10:35:42;79284.88;;;-143.60;53.49
68329;BME280;55182;56.864;60.554;2024-02-14T10:38:08;79276.84;;;-143.60;53.39
68329;BME280;55182;56.864;60.554;2024-02-14T10:40:33;79290.91;;;-143.60;52.85
68329;BME280;55182;56.864;60.554;2024-02-14T10:42:59;79292.91;;;-143.60;53.30
68329;BME280;55182;56.864;60.554;2024-02-14T10:45:25;79309.00;;;-143.60;53.35
68329;BME280;55182;56.864;60.554;2024-02-14T10:47:51;79298.97;;;-143.60;53.89
68329;BME280;55182;56.864;60.554;2024-02-14T10:50:16;79315.03;;;-143.60;54.00
68329;BME280;55182;56.864;60.554;2024-02-14T10:52:43;79315.03;;;-143.60;53.63
68329;BME280;55182;56.864;60.554;2024-02-14T10:55:09;79333.16;;;-143.60;53.75
68329;BME280;55182;56.864;60.554;2024-02-14T10:57:36;79345.22;;;-143.60;53.40
68329;BME280;55182;56.864;60.554;2024-02-14T11:00:08;79359.28;;;-143.60;52.96
68329;BME280;55182;56.864;60.554;2024-02-14T11:02:34;79357.28;;;-143.60;52.93
68329;BME280;55182;56.864;60.554;2024-02-14T11:05:01;79359.28;;;-143.60;53.93
68329;BME280;55182;56.864;60.554;2024-02-14T11:07:27;79369.34;;;-143.60;53.54
68329;BME280;55182;56.864;60.554;2024-02-14T11:10:05;79343.19;;;-143.60;53.88
68329;BME280;55182;56.864;60.554;2024-02-14T11:12:35;79377.38;;;-143.60;53.27
68329;BME280;55182;56.864;60.554;2024-02-14T11:15:00;79387.44;;;-143.60;53.09
68329;BME280;55182;56.864;60.554;2024-02-14T11:17:26;79387.44;;;-143.60;54.09
68329;BME280;55182;56.864;60.554;2024-02-14T11:19:51;79387.44;;;-143.60;54.25
68329;BME280;55182;56.864;60.554;2024-02-14T11:22:18;79397.50;;;-143.60;54.10
68329;BME280;55182;56.864;60.554;2024-02-14T11:24:46;79399.50;;;-143.60;54.23
68329;BME280;55182;56.864;60.554;2024-02-14T11:27:12;79407.56;;;-143.60;53.92
68329;BME280;55182;56.864;60.554;2024-02-14T11:29:50;79417.59;;;-143.60;54.70
68329;BME280;55182;56.864;60.554;2024-02-14T11:32:16;79405.53;;;-143.60;54.26
68329;BME280;55182;56.864;60.554;2024-02-14T11:34:42;79409.56;;;-143.60;54.21
68329;BME280;55182;56.864;60.554;2024-02-14T11:37:07;79433.69;;;-143.60;54.26
68329;BME280;55182;56.864;60.554;2024-02-14T11:39:33;79431.69;;;-143.60;53.76
68329;BME280;55182;56.864;60.554;2024-02-14T11:41:59;79431.69;;;-143.60;53.88
68329;BME280;55182;56.864;60.554;2024-02-14T11:44:25;79421.63;;;-143.60;54.38
68329;BME280;55182;56.864;60.554;2024-02-14T11:46:50;79441.75;;;-143.60;54.58
68329;BME280;55182;56.864;60.554;2024-02-14T11:49:16;79445.75;;;-143.60;54.93
68329;BME280;55182;56.864;60.554;2024-02-14T11:51:41;79453.81;;;-143.60;54.93
68329;BME280;55182;56.864;60.554;2024-02-14T11:54:07;79447.78;;;-143.60;54.48
68329;BME280;55182;56.864;60.554;2024-02-14T11:56:36;79455.81;;;-143.60;54.29
68329;BME280;55182;56.864;60.554;2024-02-14T11:59:02;79449.78;;;-143.60;54.38
68329;BME280;55182;56.864;60.554;2024-02-14T12:01:31;79465.88;;;-143.60;54.53
68329;BME280;55182;56.864;60.554;2024-02-14T12:03:58;79471.91;;;-143.60;54.36
68329;BME280;55182;56.864;60.554;2024-02-14T12:06:24;79483.97;;;-143.60;54.85
68329;BME280;55182;56.864;60.554;2024-02-14T12:08:50;79496.03;;;-143.60;54.55
68329;BME280;55182;56.864;60.554;2024-02-14T12:11:15;79504.09;;;-143.60;54.76
68329;BME280;55182;56.864;60.554;2024-02-14T12:13:42;79492.03;;;-143.60;54.88
68329;BME280;55182;56.864;60.554;2024-02-14T12:16:07;79500.06;;;-143.60;55.62
68329;BME280;55182;56.864;60.554;2024-02-14T12:18:33;79520.19;;;-143.60;55.16
68329;BME280;55182;56.864;60.554;2024-02-14T12:21:07;79514.16;;;-143.60;55.10
68329;BME280;55182;56.864;60.554;2024-02-14T12:23:33;79524.19;;;-143.60;55.66